Terminal Aerodrome Forecast
Issued by NWS

Home | Current Version | Previous Version | Text Only | Print | Product List | Glossary On
Versions: 1 2 3 4 5 6 7 8 9 10 11 12 13 14 15 16 17 18 19 20 21 22 23 24 25 26 27 28 29 30 31 32
994
FTUS44 KMOB 022329
TAFBFM
TAF
KBFM 022329Z 0300/0324 05008KT P6SM SCT150 OVC250
     FM030600 04010KT P6SM VCSH BKN100 OVC250
      TEMPO 0307/0311 -RA
     FM031500 07015G22KT P6SM -RA BKN070 OVC100=

USA.gov is the U.S. government's official web portal to all federal, state and local government web resources and services.